sensor_id;sensor_type;location;lat;lon;timestamp;pressure;altitude;pressure_sealevel;temperature;humidity
72585;BME280;60618;40.084;32.908;2023-05-24T00:01:23;89321.69;;;12.70;87.76
72585;BME280;60618;40.084;32.908;2023-05-24T00:03:51;89317.06;;;12.82;87.05
72585;BME280;60618;40.084;32.908;2023-05-24T00:06:19;89320.19;;;12.92;86.49
72585;BME280;60618;40.084;32.908;2023-05-24T00:08:46;89325.75;;;12.99;86.17
72585;BME280;60618;40.084;32.908;2023-05-24T00:11:13;89313.56;;;13.10;85.66
72585;BME280;60618;40.084;32.908;2023-05-24T00:13:40;89310.19;;;13.09;85.60
72585;BME280;60618;40.084;32.908;2023-05-24T00:16:07;89311.66;;;13.04;85.67
72585;BME280;60618;40.084;32.908;2023-05-24T00:18:33;89313.34;;;13.13;85.49
72585;BME280;60618;40.084;32.908;2023-05-24T00:21:00;89310.41;;;13.22;84.79
72585;BME280;60618;40.084;32.908;2023-05-24T00:23:27;89315.50;;;13.31;84.46
72585;BME280;60618;40.084;32.908;2023-05-24T00:25:54;89309.63;;;13.33;83.90
72585;BME280;60618;40.084;32.908;2023-05-24T00:28:21;89305.47;;;13.38;83.58
72585;BME280;60618;40.084;32.908;2023-05-24T00:30:48;89293.81;;;13.41;83.52
72585;BME280;60618;40.084;32.908;2023-05-24T00:33:15;89296.91;;;13.50;82.77
72585;BME280;60618;40.084;32.908;2023-05-24T00:35:42;89293.03;;;13.51;82.33
72585;BME280;60618;40.084;32.908;2023-05-24T00:38:09;89299.56;;;13.56;82.11
72585;BME280;60618;40.084;32.908;2023-05-24T00:40:36;89296.66;;;13.54;81.79
72585;BME280;60618;40.084;32.908;2023-05-24T00:43:02;89300.34;;;13.45;81.91
72585;BME280;60618;40.084;32.908;2023-05-24T00:45:29;89297.41;;;13.49;82.09
72585;BME280;60618;40.084;32.908;2023-05-24T00:47:59;89297.72;;;13.40;81.92
72585;BME280;60618;40.084;32.908;2023-05-24T00:50:26;89302.13;;;13.31;81.97
72585;BME280;60618;40.084;32.908;2023-05-24T00:52:53;89300.44;;;13.12;82.45
72585;BME280;60618;40.084;32.908;2023-05-24T00:55:22;89304.16;;;12.92;82.84
72585;BME280;60618;40.084;32.908;2023-05-24T00:57:50;89305.63;;;12.82;83.67
72585;BME280;60618;40.084;32.908;2023-05-24T01:00:18;89301.31;;;12.67;84.01
72585;BME280;60618;40.084;32.908;2023-05-24T01:02:45;89296.66;;;12.73;83.80
72585;BME280;60618;40.084;32.908;2023-05-24T01:05:13;89302.22;;;12.87;84.02
72585;BME280;60618;40.084;32.908;2023-05-24T01:10:30;89307.28;;;13.07;83.06
72585;BME280;60618;40.084;32.908;2023-05-24T01:16:10;89308.72;;;13.08;82.71
72585;BME280;60618;40.084;32.908;2023-05-24T01:18:55;89303.22;;;12.72;81.77
72585;BME280;60618;40.084;32.908;2023-05-24T01:24:31;89307.41;;;12.17;86.65
72585;BME280;60618;40.084;32.908;2023-05-24T01:27:12;89307.66;;;12.08;88.12
72585;BME280;60618;40.084;32.908;2023-05-24T01:29:40;89315.19;;;12.04;88.71
72585;BME280;60618;40.084;32.908;2023-05-24T01:32:08;89316.63;;;12.11;88.72
72585;BME280;60618;40.084;32.908;2023-05-24T01:34:35;89308.63;;;12.16;88.85
72585;BME280;60618;40.084;32.908;2023-05-24T01:37:02;89312.50;;;12.27;88.58
72585;BME280;60618;40.084;32.908;2023-05-24T01:39:29;89304.25;;;12.36;88.16
72585;BME280;60618;40.084;32.908;2023-05-24T01:44:38;89314.16;;;12.63;86.44
72585;BME280;60618;40.084;32.908;2023-05-24T01:52:51;89316.78;;;12.97;84.57
72585;BME280;60618;40.084;32.908;2023-05-24T01:55:19;89324.03;;;13.02;83.80
72585;BME280;60618;40.084;32.908;2023-05-24T01:57:49;89321.38;;;13.02;84.00
72585;BME280;60618;40.084;32.908;2023-05-24T02:00:18;89320.91;;;13.03;83.78
72585;BME280;60618;40.084;32.908;2023-05-24T02:02:45;89327.69;;;13.04;83.52
72585;BME280;60618;40.084;32.908;2023-05-24T02:05:12;89324.53;;;13.06;82.97
72585;BME280;60618;40.084;32.908;2023-05-24T02:07:39;89321.09;;;13.11;82.94
72585;BME280;60618;40.084;32.908;2023-05-24T02:10:06;89319.41;;;13.08;82.56
72585;BME280;60618;40.084;32.908;2023-05-24T02:12:33;89335.72;;;13.04;82.68
72585;BME280;60618;40.084;32.908;2023-05-24T02:15:00;89331.38;;;12.85;83.03
72585;BME280;60618;40.084;32.908;2023-05-24T02:17:27;89320.22;;;12.81;83.23
72585;BME280;60618;40.084;32.908;2023-05-24T02:19:54;89318.06;;;12.62;83.56
72585;BME280;60618;40.084;32.908;2023-05-24T02:22:21;89324.41;;;12.42;85.12
72585;BME280;60618;40.084;32.908;2023-05-24T02:24:48;89327.53;;;12.46;85.74
72585;BME280;60618;40.084;32.908;2023-05-24T02:27:15;89320.75;;;12.51;85.73
72585;BME280;60618;40.084;32.908;2023-05-24T02:29:42;89333.34;;;12.56;85.49
72585;BME280;60618;40.084;32.908;2023-05-24T02:32:09;89329.00;;;12.53;85.37
72585;BME280;60618;40.084;32.908;2023-05-24T02:34:36;89323.16;;;12.60;84.93
72585;BME280;60618;40.084;32.908;2023-05-24T02:37:03;89329.47;;;12.68;85.00
72585;BME280;60618;40.084;32.908;2023-05-24T02:39:30;89332.38;;;12.70;84.62
72585;BME280;60618;40.084;32.908;2023-05-24T02:41:57;89335.78;;;12.71;84.88
72585;BME280;60618;40.084;32.908;2023-05-24T02:44:24;89333.34;;;12.78;84.38
72585;BME280;60618;40.084;32.908;2023-05-24T02:46:51;89329.72;;;12.70;84.63
72585;BME280;60618;40.084;32.908;2023-05-24T02:49:18;89323.63;;;12.75;84.57
72585;BME280;60618;40.084;32.908;2023-05-24T02:51:45;89331.91;;;12.77;84.79
72585;BME280;60618;40.084;32.908;2023-05-24T02:54:12;89328.28;;;12.41;85.71
72585;BME280;60618;40.084;32.908;2023-05-24T02:56:39;89338.94;;;12.19;87.06
72585;BME280;60618;40.084;32.908;2023-05-24T02:59:06;89337.25;;;12.21;87.75
72585;BME280;60618;40.084;32.908;2023-05-24T03:01:33;89335.56;;;12.35;87.52
72585;BME280;60618;40.084;32.908;2023-05-24T03:04:00;89333.88;;;12.15;87.78
72585;BME280;60618;40.084;32.908;2023-05-24T03:06:27;89338.66;;;11.78;89.59
72585;BME280;60618;40.084;32.908;2023-05-24T03:08:53;89343.06;;;11.92;89.50
72585;BME280;60618;40.084;32.908;2023-05-24T03:11:20;89342.09;;;12.06;88.94
72585;BME280;60618;40.084;32.908;2023-05-24T03:13:48;89341.63;;;12.19;88.41
72585;BME280;60618;40.084;32.908;2023-05-24T03:16:15;89336.53;;;12.32;88.23
72585;BME280;60618;40.084;32.908;2023-05-24T03:18:42;89332.91;;;12.41;87.50
72585;BME280;60618;40.084;32.908;2023-05-24T03:21:09;89335.06;;;12.37;87.41
72585;BME280;60618;40.084;32.908;2023-05-24T03:23:35;89340.66;;;12.39;87.16
72585;BME280;60618;40.084;32.908;2023-05-24T03:26:02;89337.53;;;12.40;87.34
72585;BME280;60618;40.084;32.908;2023-05-24T03:28:29;89343.78;;;11.87;89.35
72585;BME280;60618;40.084;32.908;2023-05-24T03:30:56;89353.22;;;11.93;90.56
72585;BME280;60618;40.084;32.908;2023-05-24T03:33:23;89351.53;;;11.90;91.48
72585;BME280;60618;40.084;32.908;2023-05-24T03:35:50;89345.91;;;11.72;92.45
72585;BME280;60618;40.084;32.908;2023-05-24T03:38:17;89354.09;;;11.51;94.03
72585;BME280;60618;40.084;32.908;2023-05-24T03:40:44;89353.44;;;11.79;94.76
72585;BME280;60618;40.084;32.908;2023-05-24T03:43:11;89365.38;;;11.89;94.08
72585;BME280;60618;40.084;32.908;2023-05-24T03:45:38;89359.06;;;11.92;93.33
72585;BME280;60618;40.084;32.908;2023-05-24T03:48:05;89363.91;;;11.88;92.86
72585;BME280;60618;40.084;32.908;2023-05-24T03:50:33;89359.59;;;12.07;92.79
72585;BME280;60618;40.084;32.908;2023-05-24T03:53:00;89362.00;;;12.16;92.14
72585;BME280;60618;40.084;32.908;2023-05-24T03:55:26;89350.59;;;12.38;91.73
72585;BME280;60618;40.084;32.908;2023-05-24T03:57:53;89362.25;;;12.46;90.54
72585;BME280;60618;40.084;32.908;2023-05-24T04:00:20;89369.78;;;12.37;90.43
72585;BME280;60618;40.084;32.908;2023-05-24T04:02:47;89367.34;;;12.28;91.09
72585;BME280;60618;40.084;32.908;2023-05-24T04:05:14;89371.25;;;12.38;91.36
72585;BME280;60618;40.084;32.908;2023-05-24T04:07:41;89374.91;;;12.63;90.87
72585;BME280;60618;40.084;32.908;2023-05-24T04:10:08;89366.88;;;12.79;90.88
72585;BME280;60618;40.084;32.908;2023-05-24T04:12:35;89359.56;;;12.91;89.98
72585;BME280;60618;40.084;32.908;2023-05-24T04:15:02;89368.78;;;12.96;88.87
72585;BME280;60618;40.084;32.908;2023-05-24T04:17:29;89365.41;;;12.73;89.13
72585;BME280;60618;40.084;32.908;2023-05-24T04:19:56;89367.13;;;12.65;89.76
72585;BME280;60618;40.084;32.908;2023-05-24T04:22:24;89360.56;;;12.49;91.40
72585;BME280;60618;40.084;32.908;2023-05-24T04:24:51;89369.28;;;12.66;91.97
72585;BME280;60618;40.084;32.908;2023-05-24T04:27:18;89360.06;;;12.78;91.42
72585;BME280;60618;40.084;32.908;2023-05-24T04:29:45;89368.75;;;13.01;90.95
72585;BME280;60618;40.084;32.908;2023-05-24T04:32:12;89366.56;;;13.22;89.47
72585;BME280;60618;40.084;32.908;2023-05-24T04:34:39;89363.31;;;13.46;88.02
72585;BME280;60618;40.084;32.908;2023-05-24T04:37:06;89366.66;;;13.69;86.36
72585;BME280;60618;40.084;32.908;2023-05-24T04:39:33;89370.03;;;13.75;84.83
72585;BME280;60618;40.084;32.908;2023-05-24T04:42:00;89366.19;;;13.59;84.09
72585;BME280;60618;40.084;32.908;2023-05-24T04:44:27;89376.97;;;13.43;86.05
72585;BME280;60618;40.084;32.908;2023-05-24T04:46:53;89379.41;;;13.41;87.10
72585;BME280;60618;40.084;32.908;2023-05-24T04:49:20;89381.56;;;13.48;86.41
72585;BME280;60618;40.084;32.908;2023-05-24T04:51:47;89369.81;;;13.68;85.36
72585;BME280;60618;40.084;32.908;2023-05-24T04:54:17;89378.84;;;13.59;85.03
72585;BME280;60618;40.084;32.908;2023-05-24T04:56:44;89386.66;;;13.57;84.76
72585;BME280;60618;40.084;32.908;2023-05-24T04:59:11;89385.16;;;13.67;84.72
72585;BME280;60618;40.084;32.908;2023-05-24T05:01:38;89381.53;;;13.59;85.17
72585;BME280;60618;40.084;32.908;2023-05-24T05:04:05;89386.09;;;13.75;84.33
72585;BME280;60618;40.084;32.908;2023-05-24T05:06:33;89387.44;;;13.99;82.82
72585;BME280;60618;40.084;32.908;2023-05-24T05:09:00;89390.03;;;14.15;79.37
72585;BME280;60618;40.084;32.908;2023-05-24T05:11:26;89394.84;;;14.23;79.94
72585;BME280;60618;40.084;32.908;2023-05-24T05:13:54;89392.06;;;14.39;77.90
72585;BME280;60618;40.084;32.908;2023-05-24T05:16:20;89393.13;;;14.66;77.33
72585;BME280;60618;40.084;32.908;2023-05-24T05:18:47;89387.22;;;15.03;76.06
72585;BME280;60618;40.084;32.908;2023-05-24T05:21:14;89376.19;;;15.37;75.48
72585;BME280;60618;40.084;32.908;2023-05-24T05:23:41;89383.66;;;15.20;72.18
72585;BME280;60618;40.084;32.908;2023-05-24T05:26:08;89388.94;;;14.71;73.17
72585;BME280;60618;40.084;32.908;2023-05-24T05:28:35;89387.88;;;14.85;74.71
72585;BME280;60618;40.084;32.908;2023-05-24T05:31:02;89383.56;;;14.76;74.86
72585;BME280;60618;40.084;32.908;2023-05-24T05:33:31;89383.88;;;15.22;73.36
72585;BME280;60618;40.084;32.908;2023-05-24T05:35:59;89380.75;;;15.42;71.75
72585;BME280;60618;40.084;32.908;2023-05-24T05:38:25;89383.75;;;15.57;72.04
72585;BME280;60618;40.084;32.908;2023-05-24T05:40:52;89395.50;;;15.98;69.96
72585;BME280;60618;40.084;32.908;2023-05-24T05:43:24;89392.72;;;16.28;69.50
72585;BME280;60618;40.084;32.908;2023-05-24T05:45:50;89391.50;;;16.80;69.31
72585;BME280;60618;40.084;32.908;2023-05-24T05:48:17;89392.56;;;17.35;66.97
72585;BME280;60618;40.084;32.908;2023-05-24T05:50:44;89396.53;;;17.74;61.82
72585;BME280;60618;40.084;32.908;2023-05-24T05:53:11;89398.81;;;17.83;61.34
72585;BME280;60618;40.084;32.908;2023-05-24T05:55:38;89387.66;;;17.20;61.85
72585;BME280;60618;40.084;32.908;2023-05-24T05:58:05;89388.59;;;16.59;63.09
72585;BME280;60618;40.084;32.908;2023-05-24T06:00:32;89390.81;;;16.92;64.41
72585;BME280;60618;40.084;32.908;2023-05-24T06:02:59;89385.28;;;17.17;62.80
72585;BME280;60618;40.084;32.908;2023-05-24T06:05:26;89391.13;;;17.47;63.90
72585;BME280;60618;40.084;32.908;2023-05-24T06:07:53;89391.84;;;17.61;64.06
72585;BME280;60618;40.084;32.908;2023-05-24T06:10:20;89392.34;;;17.33;63.00
72585;BME280;60618;40.084;32.908;2023-05-24T06:12:47;89389.63;;;16.74;65.76
72585;BME280;60618;40.084;32.908;2023-05-24T06:15:14;89397.84;;;16.95;66.33
72585;BME280;60618;40.084;32.908;2023-05-24T06:17:41;89393.41;;;16.47;65.82
72585;BME280;60618;40.084;32.908;2023-05-24T06:20:08;89391.34;;;16.53;67.09
72585;BME280;60618;40.084;32.908;2023-05-24T06:22:38;89388.81;;;17.25;65.79
72585;BME280;60618;40.084;32.908;2023-05-24T06:25:05;89384.94;;;17.79;63.20
72585;BME280;60618;40.084;32.908;2023-05-24T06:27:32;89388.84;;;18.04;63.14
72585;BME280;60618;40.084;32.908;2023-05-24T06:29:59;89390.84;;;17.77;63.08
72585;BME280;60618;40.084;32.908;2023-05-24T06:32:26;89388.34;;;17.66;63.57
72585;BME280;60618;40.084;32.908;2023-05-24T06:34:53;89380.97;;;17.67;63.32
72585;BME280;60618;40.084;32.908;2023-05-24T06:37:20;89382.41;;;17.68;62.56
72585;BME280;60618;40.084;32.908;2023-05-24T06:39:47;89388.56;;;17.95;63.26
72585;BME280;60618;40.084;32.908;2023-05-24T06:42:14;89388.00;;;18.57;62.41
72585;BME280;60618;40.084;32.908;2023-05-24T06:44:41;89400.53;;;18.33;60.97
72585;BME280;60618;40.084;32.908;2023-05-24T06:47:08;89393.91;;;18.21;61.75
72585;BME280;60618;40.084;32.908;2023-05-24T06:49:35;89385.84;;;17.68;63.37
72585;BME280;60618;40.084;32.908;2023-05-24T06:52:02;89378.47;;;17.69;61.89
72585;BME280;60618;40.084;32.908;2023-05-24T06:54:29;89381.38;;;17.97;63.08
72585;BME280;60618;40.084;32.908;2023-05-24T06:56:56;89377.84;;;18.50;61.61
72585;BME280;60618;40.084;32.908;2023-05-24T06:59:23;89381.75;;;18.96;60.04
72585;BME280;60618;40.084;32.908;2023-05-24T07:01:50;89388.78;;;18.44;60.23
72585;BME280;60618;40.084;32.908;2023-05-24T07:04:17;89390.00;;;17.96;60.15
72585;BME280;60618;40.084;32.908;2023-05-24T07:06:44;89387.69;;;17.60;59.77
72585;BME280;60618;40.084;32.908;2023-05-24T07:09:11;89379.06;;;17.09;62.69
72585;BME280;60618;40.084;32.908;2023-05-24T07:11:38;89382.13;;;17.58;61.14
72585;BME280;60618;40.084;32.908;2023-05-24T07:14:06;89378.88;;;18.26;59.95
72585;BME280;60618;40.084;32.908;2023-05-24T07:16:33;89379.03;;;18.75;58.07
72585;BME280;60618;40.084;32.908;2023-05-24T07:19:00;89381.38;;;18.92;58.35
72585;BME280;60618;40.084;32.908;2023-05-24T07:21:30;89383.34;;;19.12;55.08
72585;BME280;60618;40.084;32.908;2023-05-24T07:23:57;89381.31;;;19.26;55.94
72585;BME280;60618;40.084;32.908;2023-05-24T07:26:23;89381.28;;;18.84;54.88
72585;BME280;60618;40.084;32.908;2023-05-24T07:28:50;89382.59;;;18.36;59.49
72585;BME280;60618;40.084;32.908;2023-05-24T07:31:17;89379.41;;;18.11;58.57
72585;BME280;60618;40.084;32.908;2023-05-24T07:33:44;89372.22;;;17.79;59.53
72585;BME280;60618;40.084;32.908;2023-05-24T07:36:11;89372.72;;;18.38;57.86
72585;BME280;60618;40.084;32.908;2023-05-24T07:38:38;89372.66;;;18.86;56.00
72585;BME280;60618;40.084;32.908;2023-05-24T07:41:05;89365.38;;;18.73;54.66
72585;BME280;60618;40.084;32.908;2023-05-24T07:43:32;89365.50;;;18.54;55.87
72585;BME280;60618;40.084;32.908;2023-05-24T07:45:59;89359.63;;;17.95;58.92
72585;BME280;60618;40.084;32.908;2023-05-24T07:48:26;89354.25;;;17.55;59.03
72585;BME280;60618;40.084;32.908;2023-05-24T07:50:53;89349.81;;;17.45;58.20
72585;BME280;60618;40.084;32.908;2023-05-24T07:53:20;89356.22;;;17.42;60.48
72585;BME280;60618;40.084;32.908;2023-05-24T07:55:47;89352.50;;;17.58;58.77
72585;BME280;60618;40.084;32.908;2023-05-24T07:58:14;89354.31;;;18.16;57.27
72585;BME280;60618;40.084;32.908;2023-05-24T08:00:41;89357.16;;;18.79;57.41
72585;BME280;60618;40.084;32.908;2023-05-24T08:03:08;89350.56;;;18.87;54.45
72585;BME280;60618;40.084;32.908;2023-05-24T08:05:35;89357.47;;;18.75;53.06
72585;BME280;60618;40.084;32.908;2023-05-24T08:08:02;89351.81;;;18.86;55.55
72585;BME280;60618;40.084;32.908;2023-05-24T08:10:29;89355.63;;;19.12;54.31
72585;BME280;60618;40.084;32.908;2023-05-24T08:12:55;89346.03;;;19.32;54.97
72585;BME280;60618;40.084;32.908;2023-05-24T08:15:22;89343.97;;;19.17;54.70
72585;BME280;60618;40.084;32.908;2023-05-24T08:17:49;89347.66;;;19.06;53.75
72585;BME280;60618;40.084;32.908;2023-05-24T08:20:16;89354.31;;;18.84;52.64
72585;BME280;60618;40.084;32.908;2023-05-24T08:22:43;89354.06;;;19.45;52.11
72585;BME280;60618;40.084;32.908;2023-05-24T08:25:10;89349.63;;;20.20;50.87
72585;BME280;60618;40.084;32.908;2023-05-24T08:27:37;89352.38;;;19.91;50.35
72585;BME280;60618;40.084;32.908;2023-05-24T08:30:05;89348.63;;;19.66;50.64
72585;BME280;60618;40.084;32.908;2023-05-24T08:32:33;89342.28;;;19.92;50.21
72585;BME280;60618;40.084;32.908;2023-05-24T08:35:00;89352.41;;;19.63;50.49
72585;BME280;60618;40.084;32.908;2023-05-24T08:37:45;89346.50;;;19.43;50.67
72585;BME280;60618;40.084;32.908;2023-05-24T08:40:12;89352.25;;;19.19;52.31
72585;BME280;60618;40.084;32.908;2023-05-24T08:42:40;89345.22;;;18.74;53.17
72585;BME280;60618;40.084;32.908;2023-05-24T08:45:09;89346.06;;;18.01;55.34
72585;BME280;60618;40.084;32.908;2023-05-24T08:47:37;89343.72;;;17.71;55.75
72585;BME280;60618;40.084;32.908;2023-05-24T08:50:05;89344.19;;;17.69;55.26
72585;BME280;60618;40.084;32.908;2023-05-24T08:52:33;89349.59;;;17.56;55.61
72585;BME280;60618;40.084;32.908;2023-05-24T08:55:03;89345.03;;;17.64;57.61
72585;BME280;60618;40.084;32.908;2023-05-24T08:57:34;89349.84;;;17.71;56.19
72585;BME280;60618;40.084;32.908;2023-05-24T09:00:01;89346.06;;;17.87;55.28
72585;BME280;60618;40.084;32.908;2023-05-24T09:02:29;89346.91;;;17.56;56.66
72585;BME280;60618;40.084;32.908;2023-05-24T09:04:56;89355.38;;;17.20;59.86
72585;BME280;60618;40.084;32.908;2023-05-24T09:07:24;89356.91;;;17.16;60.60
72585;BME280;60618;40.084;32.908;2023-05-24T09:10:04;89365.63;;;16.77;60.52
72585;BME280;60618;40.084;32.908;2023-05-24T09:12:32;89368.19;;;16.50;64.03
72585;BME280;60618;40.084;32.908;2023-05-24T09:15:05;89373.13;;;14.97;70.39
72585;BME280;60618;40.084;32.908;2023-05-24T09:17:34;89375.66;;;14.54;75.88
72585;BME280;60618;40.084;32.908;2023-05-24T09:20:01;89396.41;;;14.07;74.57
72585;BME280;60618;40.084;32.908;2023-05-24T09:22:28;89383.97;;;13.57;78.28
72585;BME280;60618;40.084;32.908;2023-05-24T09:25:03;89391.28;;;13.51;74.54
72585;BME280;60618;40.084;32.908;2023-05-24T09:27:32;89384.16;;;13.70;73.31
72585;BME280;60618;40.084;32.908;2023-05-24T09:29:59;89376.94;;;14.06;74.16
72585;BME280;60618;40.084;32.908;2023-05-24T09:32:26;89385.22;;;14.44;75.52
72585;BME280;60618;40.084;32.908;2023-05-24T09:34:57;89382.84;;;14.70;72.23
72585;BME280;60618;40.084;32.908;2023-05-24T09:37:25;89377.00;;;14.72;66.72
72585;BME280;60618;40.084;32.908;2023-05-24T09:39:58;89392.50;;;14.85;70.19
72585;BME280;60618;40.084;32.908;2023-05-24T09:42:26;89386.72;;;15.05;69.08
72585;BME280;60618;40.084;32.908;2023-05-24T09:47:34;89391.38;;;14.99;66.09
72585;BME280;60618;40.084;32.908;2023-05-24T09:50:02;89388.78;;;14.93;64.77
72585;BME280;60618;40.084;32.908;2023-05-24T09:52:30;89397.22;;;14.73;60.65
72585;BME280;60618;40.084;32.908;2023-05-24T09:54:59;89392.41;;;14.66;60.43
72585;BME280;60618;40.084;32.908;2023-05-24T09:57:26;89386.47;;;14.73;60.04
72585;BME280;60618;40.084;32.908;2023-05-24T09:59:53;89376.66;;;14.81;66.00
72585;BME280;60618;40.084;32.908;2023-05-24T10:02:20;89383.44;;;14.58;64.08
72585;BME280;60618;40.084;32.908;2023-05-24T10:04:58;89374.94;;;14.54;65.49
72585;BME280;60618;40.084;32.908;2023-05-24T10:07:27;89363.03;;;14.49;65.92
72585;BME280;60618;40.084;32.908;2023-05-24T10:09:56;89368.13;;;14.53;66.65
72585;BME280;60618;40.084;32.908;2023-05-24T10:12:23;89372.84;;;14.71;67.82
72585;BME280;60618;40.084;32.908;2023-05-24T10:14:50;89378.13;;;14.82;70.91
72585;BME280;60618;40.084;32.908;2023-05-24T10:17:18;89369.59;;;14.84;70.95
72585;BME280;60618;40.084;32.908;2023-05-24T10:19:45;89378.97;;;15.01;69.92
72585;BME280;60618;40.084;32.908;2023-05-24T10:22:13;89369.22;;;15.23;70.15
72585;BME280;60618;40.084;32.908;2023-05-24T10:24:46;89394.44;;;15.39;70.64
72585;BME280;60618;40.084;32.908;2023-05-24T10:27:22;89399.81;;;15.39;71.75
72585;BME280;60618;40.084;32.908;2023-05-24T10:30:13;89415.19;;;15.38;69.81
72585;BME280;60618;40.084;32.908;2023-05-24T10:32:43;89446.16;;;15.39;70.32
72585;BME280;60618;40.084;32.908;2023-05-24T10:35:11;89470.31;;;15.09;70.04
72585;BME280;60618;40.084;32.908;2023-05-24T10:37:38;89485.94;;;14.17;73.54
72585;BME280;60618;40.084;32.908;2023-05-24T10:40:06;89488.84;;;13.16;81.91
72585;BME280;60618;40.084;32.908;2023-05-24T10:42:34;89498.53;;;12.63;88.02
72585;BME280;60618;40.084;32.908;2023-05-24T10:47:47;89476.88;;;12.44;89.58
72585;BME280;60618;40.084;32.908;2023-05-24T10:50:21;89474.72;;;12.65;90.13
72585;BME280;60618;40.084;32.908;2023-05-24T10:52:48;89473.03;;;12.73;89.29
72585;BME280;60618;40.084;32.908;2023-05-24T10:55:18;89456.03;;;12.88;87.90
72585;BME280;60618;40.084;32.908;2023-05-24T10:57:45;89442.44;;;12.80;85.51
72585;BME280;60618;40.084;32.908;2023-05-24T11:03:08;89453.84;;;13.14;82.28
72585;BME280;60618;40.084;32.908;2023-05-24T11:08:34;89437.06;;;13.30;79.00
72585;BME280;60618;40.084;32.908;2023-05-24T11:13:54;89430.25;;;13.18;78.73
72585;BME280;60618;40.084;32.908;2023-05-24T11:16:37;89431.50;;;13.23;77.77
72585;BME280;60618;40.084;32.908;2023-05-24T11:19:19;89425.88;;;13.26;79.28
72585;BME280;60618;40.084;32.908;2023-05-24T11:21:47;89424.84;;;13.46;80.30
72585;BME280;60618;40.084;32.908;2023-05-24T11:24:20;89430.16;;;13.63;81.58
72585;BME280;60618;40.084;32.908;2023-05-24T11:26:49;89430.34;;;13.82;81.63
72585;BME280;60618;40.084;32.908;2023-05-24T11:29:23;89436.13;;;13.91;78.57
72585;BME280;60618;40.084;32.908;2023-05-24T11:31:58;89443.66;;;13.99;77.16
72585;BME280;60618;40.084;32.908;2023-05-24T11:34:25;89444.09;;;14.08;79.30
72585;BME280;60618;40.084;32.908;2023-05-24T11:36:53;89449.34;;;13.78;83.84
72585;BME280;60618;40.084;32.908;2023-05-24T11:39:30;89436.81;;;13.40;85.65
72585;BME280;60618;40.084;32.908;2023-05-24T11:42:02;89441.19;;;13.20;86.93
72585;BME280;60618;40.084;32.908;2023-05-24T11:44:33;89436.56;;;13.10;87.83
72585;BME280;60618;40.084;32.908;2023-05-24T11:47:10;89430.25;;;13.35;86.43
72585;BME280;60618;40.084;32.908;2023-05-24T11:49:39;89431.09;;;13.77;84.44
72585;BME280;60618;40.084;32.908;2023-05-24T11:52:05;89407.81;;;14.13;84.78
72585;BME280;60618;40.084;32.908;2023-05-24T11:54:32;89416.06;;;14.62;85.80
72585;BME280;60618;40.084;32.908;2023-05-24T11:56:59;89413.44;;;15.16;86.96
72585;BME280;60618;40.084;32.908;2023-05-24T11:59:27;89393.84;;;15.76;83.33
72585;BME280;60618;40.084;32.908;2023-05-24T12:04:25;89390.97;;;17.13;77.94
72585;BME280;60618;40.084;32.908;2023-05-24T12:06:52;89390.84;;;17.77;73.06
72585;BME280;60618;40.084;32.908;2023-05-24T12:09:19;89385.66;;;17.93;58.32
72585;BME280;60618;40.084;32.908;2023-05-24T12:11:48;89386.06;;;18.10;62.43
72585;BME280;60618;40.084;32.908;2023-05-24T12:14:16;89389.59;;;17.92;58.99
72585;BME280;60618;40.084;32.908;2023-05-24T12:16:44;89381.00;;;17.93;63.90
72585;BME280;60618;40.084;32.908;2023-05-24T12:19:15;89378.78;;;18.05;67.81
72585;BME280;60618;40.084;32.908;2023-05-24T12:21:57;89380.50;;;17.81;67.75
72585;BME280;60618;40.084;32.908;2023-05-24T12:24:25;89375.28;;;17.57;65.22
72585;BME280;60618;40.084;32.908;2023-05-24T12:26:57;89373.72;;;17.88;65.05
72585;BME280;60618;40.084;32.908;2023-05-24T12:29:25;89363.78;;;17.96;64.34
72585;BME280;60618;40.084;32.908;2023-05-24T12:31:52;89375.66;;;18.27;60.69
72585;BME280;60618;40.084;32.908;2023-05-24T12:34:20;89359.88;;;18.65;58.23
72585;BME280;60618;40.084;32.908;2023-05-24T12:36:47;89358.00;;;18.94;57.23
72585;BME280;60618;40.084;32.908;2023-05-24T12:39:21;89368.66;;;19.21;57.01
72585;BME280;60618;40.084;32.908;2023-05-24T12:41:52;89367.94;;;18.79;57.33
72585;BME280;60618;40.084;32.908;2023-05-24T12:44:27;89373.34;;;18.99;56.91
72585;BME280;60618;40.084;32.908;2023-05-24T12:46:55;89363.19;;;18.92;57.75
72585;BME280;60618;40.084;32.908;2023-05-24T12:49:23;89363.97;;;18.11;56.11
72585;BME280;60618;40.084;32.908;2023-05-24T12:51:54;89368.66;;;17.84;57.47
72585;BME280;60618;40.084;32.908;2023-05-24T12:54:23;89367.00;;;18.08;59.18
72585;BME280;60618;40.084;32.908;2023-05-24T12:56:51;89370.66;;;18.31;55.56
72585;BME280;60618;40.084;32.908;2023-05-24T12:59:22;89371.06;;;18.35;56.76
72585;BME280;60618;40.084;32.908;2023-05-24T13:01:50;89364.63;;;17.91;57.18
72585;BME280;60618;40.084;32.908;2023-05-24T13:04:18;89363.03;;;18.09;56.47
72585;BME280;60618;40.084;32.908;2023-05-24T13:06:45;89372.00;;;18.38;55.02
72585;BME280;60618;40.084;32.908;2023-05-24T13:09:12;89372.34;;;18.89;56.98
72585;BME280;60618;40.084;32.908;2023-05-24T13:11:39;89374.72;;;18.72;57.13
72585;BME280;60618;40.084;32.908;2023-05-24T13:14:06;89365.00;;;18.56;55.76
72585;BME280;60618;40.084;32.908;2023-05-24T13:16:33;89365.50;;;18.54;57.56
72585;BME280;60618;40.084;32.908;2023-05-24T13:19:00;89363.50;;;18.34;56.35
72585;BME280;60618;40.084;32.908;2023-05-24T13:21:27;89362.28;;;18.90;58.14
72585;BME280;60618;40.084;32.908;2023-05-24T13:23:54;89354.69;;;19.09;54.97
72585;BME280;60618;40.084;32.908;2023-05-24T13:26:21;89352.19;;;19.32;54.16
72585;BME280;60618;40.084;32.908;2023-05-24T13:28:48;89352.66;;;19.51;52.94